Time;durP1;ratioP1;P1;durP2;ratioP2;P2;SDS_P1;SDS_P2;PMS_P1;PMS_P2;Temp;Humidity;BMP_temperature;BMP_pressure;BME280_temperature;BME280_humidity;BME280_pressure;Samples;Min_cycle;Max_cycle;Signal;HPM_P1;HPM_P2
2021/09/15 00:01:58;;;;;;;8.32;4.22;;;14.80;99.90;;;;;;5048761;28;20025;-81
2021/09/15 00:04:29;;;;;;;6.72;4.30;;;14.80;99.90;;;;;;5046484;28;20043;-81
2021/09/15 00:06:54;;;;;;;6.25;4.63;;;14.80;99.90;;;;;;5047466;28;20631;-82
2021/09/15 00:09:20;;;;;;;8.32;4.65;;;14.90;99.90;;;;;;5047066;28;20055;-82
2021/09/15 00:11:45;;;;;;;6.22;4.07;;;14.90;99.90;;;;;;5042548;28;20017;-81
2021/09/15 00:14:11;;;;;;;8.55;4.63;;;14.90;99.90;;;;;;5045665;28;20044;-81
2021/09/15 00:16:37;;;;;;;5.93;4.28;;;14.90;99.90;;;;;;5041613;28;20037;-81
2021/09/15 00:19:03;;;;;;;7.20;4.43;;;15.00;99.90;;;;;;5037952;28;20029;-82
2021/09/15 00:21:29;;;;;;;9.00;4.72;;;14.90;99.90;;;;;;5042778;28;20032;-81
2021/09/15 00:23:55;;;;;;;6.72;4.78;;;14.90;99.90;;;;;;5049461;28;20029;-81
2021/09/15 00:26:20;;;;;;;8.32;5.00;;;14.90;99.90;;;;;;5043857;28;20042;-82
2021/09/15 00:28:46;;;;;;;8.23;5.10;;;14.90;99.90;;;;;;5042393;28;20563;-81
2021/09/15 00:31:11;;;;;;;7.68;5.00;;;14.90;99.90;;;;;;5049449;28;20025;-81
2021/09/15 00:33:37;;;;;;;9.98;5.50;;;15.00;99.90;;;;;;5039427;28;20053;-82
2021/09/15 00:36:02;;;;;;;8.30;4.63;;;15.00;99.90;;;;;;5043929;28;20029;-81
2021/09/15 00:38:28;;;;;;;6.72;5.00;;;15.00;99.90;;;;;;5046669;28;20033;-81
2021/09/15 00:40:54;;;;;;;7.43;5.78;;;15.00;99.90;;;;;;5047087;28;20810;-81
2021/09/15 00:43:20;;;;;;;8.63;5.38;;;15.00;99.90;;;;;;5047153;28;20480;-81
2021/09/15 00:45:45;;;;;;;7.05;5.05;;;14.90;99.90;;;;;;5046809;28;20053;-82
2021/09/15 00:48:11;;;;;;;12.45;5.03;;;14.90;99.90;;;;;;5036837;28;20033;-81
2021/09/15 00:50:36;;;;;;;9.10;5.18;;;14.90;99.90;;;;;;5044515;28;20010;-81
2021/09/15 00:53:02;;;;;;;7.47;5.05;;;14.80;99.90;;;;;;5030260;28;20115;-81
2021/09/15 00:55:28;;;;;;;12.48;4.78;;;14.80;99.90;;;;;;5047877;28;20242;-82
2021/09/15 00:57:56;;;;;;;12.50;5.45;;;14.80;99.90;;;;;;5044425;28;20036;-82
2021/09/15 01:00:21;;;;;;;8.57;5.63;;;14.80;99.90;;;;;;5042740;28;20029;-81
2021/09/15 01:02:47;;;;;;;10.38;5.20;;;14.80;99.90;;;;;;5047179;28;20032;-81
2021/09/15 01:05:12;;;;;;;7.80;5.47;;;14.80;99.90;;;;;;5048469;28;20036;-81
2021/09/15 01:07:38;;;;;;;9.95;5.30;;;14.80;99.90;;;;;;5037215;28;20049;-82
2021/09/15 01:10:04;;;;;;;8.77;5.35;;;14.80;99.90;;;;;;5045818;28;20409;-81
2021/09/15 01:12:31;;;;;;;8.73;5.88;;;14.80;99.90;;;;;;5046689;28;20033;-81
2021/09/15 01:14:56;;;;;;;14.68;6.00;;;14.80;99.90;;;;;;5039572;28;20017;-81
2021/09/15 01:17:22;;;;;;;7.85;5.20;;;14.80;99.90;;;;;;5046486;28;20553;-81
2021/09/15 01:19:47;;;;;;;6.95;4.80;;;14.90;99.90;;;;;;5046117;28;20056;-81
2021/09/15 01:22:12;;;;;;;8.98;5.90;;;14.80;99.90;;;;;;5046072;28;20025;-81
2021/09/15 01:24:38;;;;;;;10.40;5.70;;;14.90;99.90;;;;;;5042456;28;20078;-82
2021/09/15 01:27:04;;;;;;;12.88;6.53;;;14.90;99.90;;;;;;5038649;28;20024;-81
2021/09/15 01:29:32;;;;;;;11.70;6.47;;;14.90;99.90;;;;;;5041568;28;20036;-81
2021/09/15 01:32:00;;;;;;;11.40;6.85;;;14.90;99.90;;;;;;5041333;28;20026;-81
2021/09/15 01:34:27;;;;;;;10.77;6.35;;;15.00;99.90;;;;;;5042735;28;20026;-81
2021/09/15 01:36:53;;;;;;;9.88;5.68;;;15.00;99.90;;;;;;5035011;28;20021;-81
2021/09/15 01:39:19;;;;;;;12.70;6.40;;;15.00;99.90;;;;;;5043077;28;20037;-82
2021/09/15 01:41:44;;;;;;;9.95;6.20;;;15.00;99.90;;;;;;5039906;28;20030;-81
2021/09/15 01:44:10;;;;;;;10.50;5.97;;;15.00;99.90;;;;;;5043232;28;20039;-81
2021/09/15 01:46:35;;;;;;;10.10;6.70;;;15.00;99.90;;;;;;5046335;28;20032;-81
2021/09/15 01:49:01;;;;;;;10.00;6.85;;;15.00;99.90;;;;;;5043069;28;20024;-82
2021/09/15 01:51:26;;;;;;;16.27;7.10;;;14.90;99.90;;;;;;5045319;28;20032;-81
2021/09/15 01:54:10;;;;;;;9.35;6.93;;;14.90;99.90;;;;;;5047090;28;20534;-81
2021/09/15 01:56:36;;;;;;;11.75;6.85;;;14.90;99.90;;;;;;5045661;28;20041;-81
2021/09/15 01:59:01;;;;;;;10.93;7.30;;;14.90;99.90;;;;;;5046405;28;20053;-82
2021/09/15 02:01:42;;;;;;;11.52;7.20;;;14.90;99.90;;;;;;5048545;28;20487;-81
2021/09/15 02:04:08;;;;;;;12.70;6.75;;;14.90;99.90;;;;;;5044149;28;20040;-81
2021/09/15 02:06:34;;;;;;;14.50;7.72;;;14.90;99.90;;;;;;5042264;28;20527;-81
2021/09/15 02:08:59;;;;;;;11.02;7.15;;;14.90;99.90;;;;;;5044456;28;20060;-81
2021/09/15 02:11:25;;;;;;;14.32;7.18;;;14.90;99.90;;;;;;5045945;28;20462;-81
2021/09/15 02:13:51;;;;;;;13.65;8.15;;;15.00;99.90;;;;;;5051807;28;20033;-81
2021/09/15 02:16:16;;;;;;;13.18;7.78;;;15.00;99.90;;;;;;5043954;28;20244;-81
2021/09/15 02:18:42;;;;;;;13.80;7.15;;;15.00;99.90;;;;;;5038372;28;20392;-81
2021/09/15 02:21:08;;;;;;;13.25;8.00;;;15.00;99.90;;;;;;5028851;28;20105;-81
2021/09/15 02:23:33;;;;;;;10.88;7.28;;;15.00;99.90;;;;;;5045311;28;20037;-81
2021/09/15 02:25:59;;;;;;;12.38;7.63;;;15.10;99.90;;;;;;5044861;28;20030;-81
2021/09/15 02:28:24;;;;;;;13.40;8.10;;;15.10;99.90;;;;;;5043679;28;20146;-81
2021/09/15 02:30:50;;;;;;;11.15;7.70;;;15.10;99.90;;;;;;5034263;28;20017;-81
2021/09/15 02:33:15;;;;;;;12.13;8.07;;;15.10;99.90;;;;;;5037937;28;20021;-81
2021/09/15 02:35:41;;;;;;;15.82;8.65;;;15.10;99.90;;;;;;5046713;28;20118;-81
2021/09/15 02:38:06;;;;;;;12.05;7.57;;;15.20;99.90;;;;;;5040585;28;20483;-81
2021/09/15 02:40:32;;;;;;;13.00;8.32;;;15.20;99.90;;;;;;5038648;28;20026;-81
2021/09/15 02:42:57;;;;;;;11.82;7.78;;;15.20;99.90;;;;;;5045933;28;20025;-81
2021/09/15 02:45:23;;;;;;;14.23;8.30;;;15.20;99.90;;;;;;5043222;28;20029;-81
2021/09/15 02:47:48;;;;;;;14.05;8.38;;;15.20;99.90;;;;;;5054880;28;20124;-81
2021/09/15 02:50:17;;;;;;;14.52;7.47;;;15.30;99.90;;;;;;5041453;28;20099;-81
2021/09/15 02:52:42;;;;;;;12.68;8.40;;;15.30;99.90;;;;;;5042112;28;20076;-81
2021/09/15 02:55:08;;;;;;;12.55;8.30;;;15.30;99.90;;;;;;5044884;28;20044;-81
2021/09/15 02:57:34;;;;;;;12.52;8.25;;;15.30;99.90;;;;;;5048983;28;20063;-80
2021/09/15 02:59:59;;;;;;;14.73;8.90;;;15.30;99.90;;;;;;5043639;28;20021;-80
2021/09/15 03:02:25;;;;;;;12.32;8.13;;;15.30;99.90;;;;;;5050045;28;20021;-80
2021/09/15 03:04:50;;;;;;;13.25;8.30;;;15.30;99.90;;;;;;5055707;28;20033;-80
2021/09/15 03:07:16;;;;;;;15.88;8.32;;;15.30;99.90;;;;;;5046565;28;20120;-80
2021/09/15 03:09:41;;;;;;;14.80;7.88;;;15.30;99.90;;;;;;5047311;28;20100;-80
2021/09/15 03:12:07;;;;;;;13.88;8.85;;;15.30;99.90;;;;;;5046141;28;20422;-81
2021/09/15 03:14:32;;;;;;;12.88;8.43;;;15.30;99.90;;;;;;5049870;28;20059;-80
2021/09/15 03:16:58;;;;;;;15.88;9.63;;;15.30;99.90;;;;;;5042074;28;20542;-80
2021/09/15 03:19:23;;;;;;;12.60;8.55;;;15.30;99.90;;;;;;5038030;28;20246;-81
2021/09/15 03:21:49;;;;;;;18.13;8.95;;;15.40;99.90;;;;;;5042900;28;20372;-81
2021/09/15 03:24:14;;;;;;;14.73;8.65;;;15.40;99.90;;;;;;5042695;28;20121;-81
2021/09/15 03:26:40;;;;;;;14.85;8.85;;;15.40;99.90;;;;;;5044040;28;20057;-80
2021/09/15 03:29:05;;;;;;;11.18;8.35;;;15.40;99.90;;;;;;5042553;28;20475;-81
2021/09/15 03:31:31;;;;;;;16.13;9.05;;;15.40;99.90;;;;;;5048159;28;20064;-80
2021/09/15 03:33:56;;;;;;;14.75;8.30;;;15.40;99.90;;;;;;5039932;28;20029;-80
2021/09/15 03:36:22;;;;;;;13.70;8.77;;;15.40;99.90;;;;;;5045844;28;20407;-81
2021/09/15 03:38:48;;;;;;;17.70;8.80;;;15.40;99.90;;;;;;5047103;28;20033;-81
2021/09/15 03:41:13;;;;;;;16.23;8.95;;;15.40;99.90;;;;;;5042380;28;20043;-80
2021/09/15 03:43:39;;;;;;;15.65;8.65;;;15.40;99.90;;;;;;5041660;28;20029;-81
2021/09/15 03:46:04;;;;;;;16.13;9.00;;;15.40;99.90;;;;;;5042375;28;20044;-81
2021/09/15 03:48:30;;;;;;;14.68;8.75;;;15.40;99.90;;;;;;5039595;28;20122;-81
2021/09/15 03:50:55;;;;;;;17.40;9.98;;;15.40;99.90;;;;;;5047230;28;20013;-81
2021/09/15 03:53:21;;;;;;;15.00;8.60;;;15.40;99.90;;;;;;5041124;28;20025;-80
2021/09/15 03:55:46;;;;;;;13.55;8.80;;;15.40;99.90;;;;;;5038202;28;20130;-81
2021/09/15 03:58:12;;;;;;;15.65;9.52;;;15.40;99.90;;;;;;5046071;28;20035;-80
2021/09/15 04:00:37;;;;;;;15.32;9.85;;;15.40;99.90;;;;;;5041783;28;20068;-81
2021/09/15 04:03:03;;;;;;;12.30;8.68;;;15.40;99.90;;;;;;5039729;28;20051;-81
2021/09/15 04:05:29;;;;;;;12.25;8.43;;;15.50;99.90;;;;;;5049471;28;20033;-79
2021/09/15 04:07:54;;;;;;;14.13;8.98;;;15.50;99.90;;;;;;5050338;28;20029;-80
2021/09/15 04:10:20;;;;;;;13.40;8.95;;;15.50;99.90;;;;;;5047688;28;20096;-80
2021/09/15 04:12:45;;;;;;;13.75;8.77;;;15.50;99.90;;;;;;5044838;28;20479;-80
2021/09/15 04:15:11;;;;;;;18.80;9.70;;;15.50;99.90;;;;;;5044221;28;20029;-81
2021/09/15 04:17:36;;;;;;;16.25;9.25;;;15.50;99.90;;;;;;5047239;28;20047;-80
2021/09/15 04:20:03;;;;;;;12.85;8.93;;;15.60;99.90;;;;;;5035403;28;20079;-80
2021/09/15 04:22:29;;;;;;;14.63;9.23;;;15.60;99.90;;;;;;5042303;28;20498;-80
2021/09/15 04:32:57;;;;;;;12.98;8.68;;;15.60;99.90;;;;;;5048689;28;20130;-80
2021/09/15 04:35:23;;;;;;;13.68;8.63;;;15.50;99.90;;;;;;5046378;28;20052;-81
2021/09/15 04:37:48;;;;;;;16.10;9.73;;;15.60;99.90;;;;;;5045263;28;20131;-81
2021/09/15 04:40:14;;;;;;;16.73;9.45;;;15.60;99.90;;;;;;5047317;28;20079;-81
2021/09/15 04:42:39;;;;;;;12.60;9.15;;;15.60;99.90;;;;;;5045076;28;20025;-81
2021/09/15 04:45:05;;;;;;;14.30;9.32;;;15.60;99.90;;;;;;5053321;28;20463;-81
2021/09/15 04:47:31;;;;;;;14.35;8.25;;;15.60;99.90;;;;;;5047575;28;20055;-81
2021/09/15 04:49:56;;;;;;;14.48;9.48;;;15.60;99.90;;;;;;5043042;28;20108;-80
2021/09/15 04:52:22;;;;;;;12.20;8.95;;;15.60;99.90;;;;;;5048801;28;20087;-80
2021/09/15 04:54:47;;;;;;;14.98;9.15;;;15.60;99.90;;;;;;5048427;28;20407;-80
2021/09/15 04:57:13;;;;;;;11.98;9.02;;;15.60;99.90;;;;;;5048452;28;20025;-80
2021/09/15 04:59:38;;;;;;;15.13;9.45;;;15.60;99.90;;;;;;5046561;28;20025;-78
2021/09/15 05:02:04;;;;;;;14.00;8.55;;;15.60;99.90;;;;;;5049877;28;20021;-78
2021/09/15 05:04:29;;;;;;;18.67;9.18;;;15.70;99.90;;;;;;5066027;28;20487;-82
2021/09/15 05:06:55;;;;;;;15.43;9.10;;;15.70;99.90;;;;;;5051178;28;20094;-82
2021/09/15 05:09:21;;;;;;;14.85;9.65;;;15.70;99.90;;;;;;5043124;28;20078;-81
2021/09/15 05:11:47;;;;;;;14.55;9.23;;;15.70;99.90;;;;;;5047198;28;20501;-84
2021/09/15 05:14:12;;;;;;;17.13;10.13;;;15.70;99.90;;;;;;5042496;28;20395;-83
2021/09/15 05:16:38;;;;;;;13.40;9.07;;;15.70;99.90;;;;;;5045961;28;20365;-81
2021/09/15 05:19:03;;;;;;;15.77;9.50;;;15.70;99.90;;;;;;5047212;28;20090;-75
2021/09/15 05:21:29;;;;;;;15.82;9.80;;;15.70;99.90;;;;;;5038971;28;20028;-75
2021/09/15 05:23:54;;;;;;;13.60;8.90;;;15.80;99.90;;;;;;5038306;28;20025;-78
2021/09/15 05:26:20;;;;;;;15.10;9.32;;;15.80;99.90;;;;;;5039902;28;20040;-75
2021/09/15 05:29:12;;;;;;;17.33;9.70;;;15.80;99.90;;;;;;5043834;28;20044;-75
2021/09/15 05:31:47;;;;;;;14.80;8.68;;;15.80;99.90;;;;;;5041529;28;20048;-75
2021/09/15 05:34:13;;;;;;;19.42;9.07;;;15.80;99.90;;;;;;5044535;28;20102;-75
2021/09/15 05:36:38;;;;;;;15.57;9.45;;;15.80;99.90;;;;;;5048244;28;20494;-75
2021/09/15 05:39:04;;;;;;;17.48;9.40;;;15.90;99.90;;;;;;5048202;28;20422;-75
2021/09/15 05:41:30;;;;;;;13.30;9.45;;;15.80;99.90;;;;;;5046769;28;20133;-75
2021/09/15 05:43:55;;;;;;;15.30;9.43;;;15.90;99.90;;;;;;5048276;28;20033;-75
2021/09/15 05:46:21;;;;;;;15.85;10.23;;;15.90;99.90;;;;;;5047822;28;20395;-75
2021/09/15 05:48:47;;;;;;;17.05;9.40;;;15.90;99.90;;;;;;5047320;28;20025;-75
2021/09/15 05:51:12;;;;;;;16.35;9.70;;;15.90;99.90;;;;;;5047596;28;20412;-75
2021/09/15 05:53:38;;;;;;;15.55;9.13;;;15.90;99.90;;;;;;5045533;28;20029;-76
2021/09/15 05:56:04;;;;;;;15.25;9.45;;;16.00;99.90;;;;;;5047872;28;20033;-75
2021/09/15 05:58:29;;;;;;;14.25;9.77;;;16.00;99.90;;;;;;5043686;28;20025;-75
2021/09/15 06:00:55;;;;;;;18.75;10.23;;;16.10;99.90;;;;;;5045315;28;20064;-75
2021/09/15 06:03:20;;;;;;;21.80;8.95;;;16.10;99.90;;;;;;5048021;28;20434;-75
2021/09/15 06:05:46;;;;;;;13.98;8.70;;;16.10;99.90;;;;;;5047777;28;20029;-76
2021/09/15 06:08:11;;;;;;;16.25;9.55;;;16.20;99.90;;;;;;5045943;28;20029;-75
2021/09/15 06:10:37;;;;;;;13.80;9.13;;;16.20;99.90;;;;;;5051805;28;20021;-75
2021/09/15 06:13:02;;;;;;;19.42;9.40;;;16.20;99.90;;;;;;5048950;28;20028;-79
2021/09/15 06:15:30;;;;;;;14.20;9.25;;;16.20;99.90;;;;;;5049155;28;20028;-75
2021/09/15 06:17:55;;;;;;;17.23;9.25;;;16.30;99.90;;;;;;5045142;28;20033;-75
2021/09/15 06:20:20;;;;;;;15.50;9.10;;;16.30;99.90;;;;;;5047108;28;20039;-75
2021/09/15 06:22:46;;;;;;;15.07;9.15;;;16.30;99.90;;;;;;5040088;28;20040;-76
2021/09/15 06:25:11;;;;;;;13.27;8.00;;;16.40;99.90;;;;;;5046080;28;20112;-75
2021/09/15 06:27:39;;;;;;;17.67;10.40;;;16.40;99.90;;;;;;5051814;28;20036;-76
2021/09/15 06:30:05;;;;;;;14.00;8.35;;;16.40;99.90;;;;;;5051678;28;20030;-76
2021/09/15 06:32:30;;;;;;;17.02;9.82;;;16.50;99.90;;;;;;5044409;28;20387;-76
2021/09/15 06:34:56;;;;;;;13.88;8.80;;;16.60;99.90;;;;;;5044203;28;20031;-76
2021/09/15 06:37:22;;;;;;;16.35;8.85;;;16.60;99.90;;;;;;5051320;28;20029;-76
2021/09/15 06:39:47;;;;;;;18.80;9.60;;;16.70;99.90;;;;;;5050799;28;20044;-75
2021/09/15 06:42:15;;;;;;;24.27;9.10;;;16.80;99.90;;;;;;5041643;28;20055;-75
2021/09/15 06:44:40;;;;;;;14.27;8.43;;;16.90;99.90;;;;;;5043791;28;20614;-75
2021/09/15 06:47:06;;;;;;;14.55;7.90;;;16.90;99.90;;;;;;5047733;28;20037;-74
2021/09/15 06:49:31;;;;;;;14.07;9.05;;;16.90;99.90;;;;;;5049680;28;20052;-74
2021/09/15 06:51:57;;;;;;;15.15;8.50;;;17.00;99.90;;;;;;5048418;28;20191;-75
2021/09/15 06:54:22;;;;;;;10.73;7.75;;;17.00;99.90;;;;;;5047544;28;20032;-75
2021/09/15 06:56:48;;;;;;;14.90;8.32;;;17.00;99.90;;;;;;5049508;28;20132;-79
2021/09/15 06:59:13;;;;;;;13.13;8.40;;;17.00;99.90;;;;;;5045800;28;20035;-75
2021/09/15 07:01:38;;;;;;;18.13;8.38;;;17.00;99.90;;;;;;5049056;28;20048;-75
2021/09/15 07:04:04;;;;;;;16.10;8.02;;;17.10;99.90;;;;;;5042853;28;20109;-81
2021/09/15 07:06:29;;;;;;;10.73;7.40;;;17.10;99.90;;;;;;5047519;28;20024;-80
2021/09/15 07:08:58;;;;;;;11.15;7.93;;;17.10;99.90;;;;;;5051010;28;20021;-81
2021/09/15 07:11:23;;;;;;;15.75;7.85;;;17.20;99.90;;;;;;5048571;28;20033;-81
2021/09/15 07:13:49;;;;;;;17.63;7.60;;;17.30;99.90;;;;;;5044043;28;20024;-80
2021/09/15 07:16:15;;;;;;;14.93;8.50;;;17.30;99.90;;;;;;5050705;28;20021;-81
2021/09/15 07:18:41;;;;;;;13.93;7.10;;;17.30;99.90;;;;;;5052155;28;20053;-80
2021/09/15 07:21:07;;;;;;;11.13;7.85;;;17.40;99.90;;;;;;5050575;28;20031;-81
2021/09/15 07:23:32;;;;;;;13.65;8.95;;;17.40;99.90;;;;;;5046182;28;20521;-81
2021/09/15 07:25:58;;;;;;;18.00;8.13;;;17.40;99.90;;;;;;5050956;28;20035;-80
2021/09/15 07:28:23;;;;;;;10.90;7.80;;;17.40;99.90;;;;;;5049312;28;20029;-80
2021/09/15 07:30:49;;;;;;;12.07;8.10;;;17.40;99.90;;;;;;5042262;28;20426;-80
2021/09/15 07:33:15;;;;;;;11.40;6.40;;;17.40;99.90;;;;;;5039328;28;20041;-81
2021/09/15 07:35:42;;;;;;;13.68;7.38;;;17.50;99.90;;;;;;5056580;28;20374;-80
2021/09/15 07:38:07;;;;;;;14.02;8.15;;;17.50;99.90;;;;;;5046780;28;20039;-81
2021/09/15 07:40:33;;;;;;;10.00;7.38;;;17.70;99.90;;;;;;5036770;28;20033;-80
2021/09/15 07:42:59;;;;;;;10.15;6.82;;;17.80;99.90;;;;;;5045675;28;20033;-80
2021/09/15 07:45:28;;;;;;;14.10;8.00;;;18.00;99.90;;;;;;5036356;28;20502;-81
2021/09/15 07:47:54;;;;;;;12.07;7.28;;;18.20;99.90;;;;;;5042880;28;20162;-81
2021/09/15 07:50:20;;;;;;;9.98;7.18;;;;;;;;;;5051469;28;20029;-81
2021/09/15 07:52:46;;;;;;;10.32;7.50;;;;;;;;;;5050100;28;20484;-75
2021/09/15 07:55:12;;;;;;;13.70;6.97;;;;;;;;;;5038527;28;20040;-77
2021/09/15 07:57:42;;;;;;;11.25;7.20;;;18.30;99.90;;;;;;5040823;28;20021;-74
2021/09/15 08:00:08;;;;;;;10.05;6.80;;;18.60;99.90;;;;;;5048257;28;20112;-74
2021/09/15 08:02:34;;;;;;;15.23;6.72;;;18.60;99.90;;;;;;5041527;28;20098;-75
2021/09/15 08:04:59;;;;;;;10.23;7.20;;;18.70;99.90;;;;;;5043514;28;20051;-74
2021/09/15 08:07:24;;;;;;;15.27;7.40;;;18.70;99.90;;;;;;5048116;28;20040;-73
2021/09/15 08:09:50;;;;;;;14.77;7.78;;;18.80;99.90;;;;;;5042200;28;20499;-74
2021/09/15 08:12:15;;;;;;;8.40;6.35;;;18.90;99.90;;;;;;5042280;28;20029;-75
2021/09/15 08:14:41;;;;;;;9.35;7.18;;;19.00;99.90;;;;;;5041753;28;20017;-77
2021/09/15 08:17:06;;;;;;;11.73;6.57;;;19.10;99.90;;;;;;5032661;28;20032;-76
2021/09/15 08:19:32;;;;;;;9.80;6.88;;;19.10;99.90;;;;;;5042755;28;20036;-76
2021/09/15 08:21:58;;;;;;;11.77;7.50;;;19.20;99.90;;;;;;5047657;28;20052;-76
2021/09/15 08:24:23;;;;;;;11.07;6.88;;;19.20;99.90;;;;;;5044566;28;20028;-76
2021/09/15 08:26:49;;;;;;;10.45;7.15;;;19.20;99.90;;;;;;5049654;28;20447;-76
2021/09/15 08:29:14;;;;;;;11.75;7.15;;;19.10;99.90;;;;;;5047715;28;20052;-75
2021/09/15 08:31:40;;;;;;;16.33;7.20;;;19.10;99.90;;;;;;5046507;28;20212;-75
2021/09/15 08:34:05;;;;;;;12.70;6.80;;;19.20;99.90;;;;;;5046213;28;20438;-76
2021/09/15 08:36:31;;;;;;;16.45;7.03;;;19.20;99.90;;;;;;5045933;28;20025;-74
2021/09/15 08:38:56;;;;;;;13.40;6.38;;;19.30;99.90;;;;;;5048674;28;20385;-74
2021/09/15 08:41:22;;;;;;;10.85;7.00;;;19.40;99.90;;;;;;5049721;28;20124;-74
2021/09/15 08:43:47;;;;;;;14.30;6.70;;;19.50;99.90;;;;;;5044114;28;20175;-75
2021/09/15 08:46:15;;;;;;;9.73;7.40;;;19.60;99.90;;;;;;5042839;28;20025;-75
2021/09/15 08:48:41;;;;;;;9.15;6.28;;;19.60;99.90;;;;;;5048706;28;20036;-75
2021/09/15 08:51:16;;;;;;;10.25;6.93;;;19.60;99.90;;;;;;5049044;28;20510;-75
2021/09/15 08:53:44;;;;;;;11.07;6.70;;;19.70;99.90;;;;;;5033854;28;20064;-75
2021/09/15 08:56:10;;;;;;;8.50;6.47;;;19.80;99.90;;;;;;5047058;28;20025;-74
2021/09/15 08:58:36;;;;;;;10.25;5.97;;;19.90;99.90;;;;;;5046965;28;20024;-80
2021/09/15 09:01:15;;;;;;;9.57;6.38;;;20.00;99.90;;;;;;5041031;28;20035;-74
2021/09/15 09:03:41;;;;;;;10.95;5.78;;;20.10;99.90;;;;;;5040430;28;20021;-72
2021/09/15 09:06:08;;;;;;;9.35;6.35;;;20.10;99.90;;;;;;5041870;28;20264;-74
2021/09/15 09:08:38;;;;;;;10.43;6.25;;;20.10;99.90;;;;;;5034362;28;20029;-72
2021/09/15 09:11:05;;;;;;;9.75;5.82;;;20.20;99.90;;;;;;5034203;28;20108;-75
2021/09/15 09:13:30;;;;;;;10.10;6.03;;;20.20;99.90;;;;;;5036896;28;20572;-78
2021/09/15 09:15:55;;;;;;;10.02;6.75;;;20.20;99.90;;;;;;5032933;28;20108;-77
2021/09/15 09:18:21;;;;;;;10.10;7.00;;;20.20;99.90;;;;;;5052190;28;20072;-78
2021/09/15 09:20:46;;;;;;;8.82;6.28;;;20.20;99.90;;;;;;5046642;28;20041;-77
2021/09/15 09:23:14;;;;;;;9.95;6.72;;;20.30;99.90;;;;;;5048581;28;20036;-78
2021/09/15 09:25:45;;;;;;;11.52;6.28;;;20.40;99.90;;;;;;5047466;28;20025;-78
2021/09/15 09:28:31;;;;;;;8.77;6.60;;;20.40;99.90;;;;;;5029291;28;20083;-78
2021/09/15 09:30:59;;;;;;;9.90;6.90;;;20.50;99.90;;;;;;5041891;28;20053;-75
2021/09/15 09:33:25;;;;;;;7.68;5.80;;;20.50;99.90;;;;;;5036463;28;20041;-74
2021/09/15 09:35:54;;;;;;;10.15;5.93;;;20.70;99.90;;;;;;5044774;28;20068;-74
2021/09/15 09:38:38;;;;;;;12.68;6.60;;;20.70;99.90;;;;;;5036358;28;20527;-75
2021/09/15 09:41:15;;;;;;;12.10;6.65;;;20.80;99.90;;;;;;5047018;28;20033;-74
2021/09/15 09:43:50;;;;;;;7.30;5.90;;;20.90;99.90;;;;;;5046419;28;20039;-74
2021/09/15 09:46:21;;;;;;;10.95;6.47;;;21.00;99.90;;;;;;5044082;28;20033;-74
2021/09/15 09:48:54;;;;;;;14.05;6.55;;;21.00;99.90;;;;;;5045802;28;20028;-74
2021/09/15 09:51:34;;;;;;;8.63;6.10;;;21.00;99.90;;;;;;5043369;28;20072;-74
2021/09/15 09:54:07;;;;;;;11.57;6.95;;;21.10;99.90;;;;;;5050247;28;20063;-74
2021/09/15 09:56:35;;;;;;;11.40;6.30;;;21.20;99.90;;;;;;5047040;28;20048;-77
2021/09/15 09:59:02;;;;;;;10.35;6.68;;;21.40;99.90;;;;;;5047227;28;20052;-78
2021/09/15 10:01:31;;;;;;;10.20;5.70;;;21.50;99.90;;;;;;5044665;28;20035;-77
2021/09/15 10:04:04;;;;;;;7.72;5.82;;;21.50;99.90;;;;;;5043413;28;20025;-78
2021/09/15 10:06:31;;;;;;;7.93;5.68;;;21.60;99.90;;;;;;5041810;28;20025;-79
2021/09/15 10:08:56;;;;;;;9.05;5.88;;;21.70;99.90;;;;;;5046002;28;20056;-79
2021/09/15 10:11:22;;;;;;;8.13;5.65;;;21.90;99.90;;;;;;5038325;28;20053;-79
2021/09/15 10:13:48;;;;;;;10.73;5.65;;;21.90;99.90;;;;;;5045823;28;20547;-78
2021/09/15 10:16:17;;;;;;;8.07;5.75;;;22.00;99.90;;;;;;5048045;28;20108;-78
2021/09/15 10:18:51;;;;;;;8.60;5.70;;;22.00;99.90;;;;;;5029466;28;20479;-79
2021/09/15 10:21:17;;;;;;;11.63;5.57;;;22.10;99.90;;;;;;5046456;28;20040;-78
2021/09/15 10:23:49;;;;;;;9.05;5.75;;;22.10;99.90;;;;;;5046040;28;20032;-78
2021/09/15 10:26:28;;;;;;;21.02;5.50;;;22.30;99.90;;;;;;5045577;28;20379;-78
2021/09/15 10:29:13;;;;;;;6.68;5.43;;;22.50;98.20;;;;;;5032368;28;20060;-76
2021/09/15 10:31:53;;;;;;;8.43;5.57;;;22.70;97.30;;;;;;5044998;28;20147;-78
2021/09/15 10:34:37;;;;;;;9.80;5.22;;;22.80;97.80;;;;;;5043924;28;20028;-78
2021/09/15 10:37:04;;;;;;;7.07;5.20;;;22.80;96.00;;;;;;5045586;28;20078;-79
2021/09/15 10:39:30;;;;;;;10.63;5.45;;;22.80;96.80;;;;;;5047041;28;20032;-78
2021/09/15 10:41:57;;;;;;;9.05;5.10;;;22.80;96.80;;;;;;5051588;28;20024;-78
2021/09/15 10:44:23;;;;;;;7.15;5.13;;;22.70;97.00;;;;;;5048605;28;20037;-78
2021/09/15 10:46:48;;;;;;;10.32;5.68;;;22.60;97.50;;;;;;5047116;28;20074;-78
2021/09/15 10:49:23;;;;;;;8.40;5.28;;;22.50;98.10;;;;;;5042210;28;20029;-78
2021/09/15 10:52:06;;;;;;;7.35;5.30;;;22.40;96.70;;;;;;5027467;28;20048;-78
2021/09/15 10:54:47;;;;;;;9.10;5.57;;;22.30;97.80;;;;;;5034297;28;20029;-78
2021/09/15 10:57:20;;;;;;;7.77;5.30;;;22.30;99.50;;;;;;5051091;28;20021;-78
2021/09/15 10:59:56;;;;;;;7.72;5.50;;;22.20;99.90;;;;;;5061456;28;20039;-78
2021/09/15 11:02:30;;;;;;;6.68;5.18;;;22.20;99.00;;;;;;5049536;28;20040;-78
2021/09/15 11:04:57;;;;;;;10.45;5.43;;;22.30;98.70;;;;;;5049939;28;20039;-78
2021/09/15 11:07:57;;;;;;;7.15;5.20;;;22.40;99.40;;;;;;5048972;28;20036;-78
2021/09/15 11:10:31;;;;;;;9.57;5.60;;;22.50;97.50;;;;;;5044390;28;20040;-77
2021/09/15 11:13:02;;;;;;;6.38;5.05;;;22.60;98.90;;;;;;5051120;28;20017;-78
2021/09/15 11:15:33;;;;;;;5.88;4.80;;;22.80;98.70;;;;;;5032591;28;20117;-78
2021/09/15 11:17:58;;;;;;;6.40;5.03;;;22.80;97.70;;;;;;5045281;28;20033;-78
2021/09/15 11:20:26;;;;;;;6.65;5.18;;;22.90;96.50;;;;;;5044711;28;20041;-78
2021/09/15 11:22:53;;;;;;;9.73;5.55;;;22.90;95.80;;;;;;5036066;28;20036;-78
2021/09/15 11:25:25;;;;;;;7.50;5.47;;;23.00;97.80;;;;;;5030990;28;20025;-78
2021/09/15 11:28:13;;;;;;;6.75;4.75;;;23.00;97.50;;;;;;5044393;28;20025;-78
2021/09/15 11:30:42;;;;;;;8.13;5.30;;;23.00;95.60;;;;;;5049959;28;20045;-77
2021/09/15 11:33:09;;;;;;;6.93;5.13;;;23.00;95.60;;;;;;5055352;28;20382;-77
2021/09/15 11:35:37;;;;;;;8.85;5.47;;;23.00;95.40;;;;;;5051868;28;20021;-78
2021/09/15 11:38:05;;;;;;;7.80;5.32;;;22.90;95.40;;;;;;5046313;28;20126;-76
2021/09/15 11:40:32;;;;;;;7.13;5.47;;;22.80;95.80;;;;;;5042455;28;20032;-75
2021/09/15 11:43:03;;;;;;;8.25;5.18;;;22.70;96.50;;;;;;5042492;28;20583;-74
2021/09/15 11:45:29;;;;;;;9.18;5.10;;;22.60;97.00;;;;;;5048187;28;20025;-74
2021/09/15 11:47:55;;;;;;;9.00;5.90;;;22.50;95.50;;;;;;5046389;28;20044;-73
2021/09/15 11:50:27;;;;;;;7.65;5.05;;;22.40;96.40;;;;;;5046233;28;20033;-74
2021/09/15 11:53:03;;;;;;;7.18;5.15;;;22.40;96.30;;;;;;5043595;28;20056;-74
2021/09/15 11:55:30;;;;;;;9.70;5.82;;;22.40;96.30;;;;;;5048709;28;20025;-75
2021/09/15 11:58:06;;;;;;;7.60;5.47;;;22.40;96.30;;;;;;5044550;28;20489;-74
2021/09/15 12:00:33;;;;;;;7.53;5.25;;;22.40;96.10;;;;;;5047660;28;20781;-74
2021/09/15 12:03:05;;;;;;;7.07;5.82;;;22.40;97.90;;;;;;5043926;28;20034;-74
2021/09/15 12:05:31;;;;;;;6.53;5.10;;;22.30;98.10;;;;;;5048449;28;20076;-75
2021/09/15 12:07:57;;;;;;;9.07;5.47;;;22.30;96.70;;;;;;5050137;28;20021;-74
2021/09/15 12:10:25;;;;;;;8.20;5.38;;;22.30;96.70;;;;;;5049827;28;20036;-74
2021/09/15 12:12:50;;;;;;;6.85;5.32;;;22.30;96.90;;;;;;5045493;28;20050;-75
2021/09/15 12:15:17;;;;;;;7.78;5.20;;;22.40;97.00;;;;;;5041385;28;20025;-75
2021/09/15 12:17:58;;;;;;;8.90;5.10;;;22.40;96.90;;;;;;5047998;28;20256;-75
2021/09/15 12:20:46;;;;;;;6.60;5.55;;;22.50;98.30;;;;;;5043568;28;20021;-75
2021/09/15 12:23:11;;;;;;;8.50;5.43;;;22.60;98.30;;;;;;5043206;28;20471;-74
2021/09/15 12:25:39;;;;;;;6.45;5.10;;;22.80;97.10;;;;;;5046556;28;20033;-75
2021/09/15 12:28:06;;;;;;;10.02;5.70;;;23.10;95.40;;;;;;5038969;28;20040;-74
2021/09/15 12:30:34;;;;;;;12.63;4.97;;;23.30;95.70;;;;;;5047082;28;20033;-75
2021/09/15 12:33:01;;;;;;;11.38;5.15;;;23.50;94.90;;;;;;5043472;28;20045;-74
2021/09/15 12:35:35;;;;;;;8.32;5.30;;;23.70;94.60;;;;;;5047105;28;20035;-74
2021/09/15 12:38:06;;;;;;;7.43;5.57;;;23.70;95.10;;;;;;5049275;28;20021;-74
2021/09/15 12:40:34;;;;;;;7.55;5.50;;;23.70;94.40;;;;;;5050417;28;20032;-74
2021/09/15 12:43:08;;;;;;;10.48;6.30;;;23.70;94.30;;;;;;5041761;28;20125;-74
2021/09/15 12:45:37;;;;;;;9.90;5.32;;;23.50;95.00;;;;;;5038317;28;20111;-74
2021/09/15 12:48:04;;;;;;;7.57;5.53;;;23.40;95.20;;;;;;5043245;28;20063;-76
2021/09/15 12:50:32;;;;;;;8.68;4.90;;;23.20;95.40;;;;;;5045867;28;20040;-75